sensor_id;sensor_type;location;lat;lon;timestamp;P1;durP1;ratioP1;P2;durP2;ratioP2
39782;SDS011;25462;51.164;17.100;2023-09-30T00:04:07;13.90;;;9.70;;
39782;SDS011;25462;51.164;17.100;2023-09-30T00:09:09;14.40;;;9.50;;
39782;SDS011;25462;51.164;17.100;2023-09-30T00:14:13;14.60;;;10.50;;
39782;SDS011;25462;51.164;17.100;2023-09-30T00:19:16;14.50;;;10.40;;
39782;SDS011;25462;51.164;17.100;2023-09-30T00:24:19;13.00;;;9.80;;
39782;SDS011;25462;51.164;17.100;2023-09-30T00:29:22;16.70;;;10.30;;
39782;SDS011;25462;51.164;17.100;2023-09-30T00:34:24;13.30;;;14.00;;
39782;SDS011;25462;51.164;17.100;2023-09-30T00:39:27;15.50;;;10.20;;
39782;SDS011;25462;51.164;17.100;2023-09-30T00:44:34;13.50;;;10.50;;
39782;SDS011;25462;51.164;17.100;2023-09-30T00:49:36;10.50;;;8.10;;
39782;SDS011;25462;51.164;17.100;2023-09-30T00:54:39;16.70;;;10.90;;
39782;SDS011;25462;51.164;17.100;2023-09-30T00:59:42;13.30;;;9.70;;
39782;SDS011;25462;51.164;17.100;2023-09-30T01:04:45;14.00;;;11.20;;
39782;SDS011;25462;51.164;17.100;2023-09-30T01:09:48;16.30;;;9.90;;
39782;SDS011;25462;51.164;17.100;2023-09-30T01:14:56;21.80;;;10.60;;
39782;SDS011;25462;51.164;17.100;2023-09-30T01:19:59;15.10;;;10.60;;
39782;SDS011;25462;51.164;17.100;2023-09-30T01:25:02;14.60;;;10.10;;
39782;SDS011;25462;51.164;17.100;2023-09-30T01:30:05;14.90;;;10.30;;
39782;SDS011;25462;51.164;17.100;2023-09-30T01:35:12;17.50;;;9.30;;
39782;SDS011;25462;51.164;17.100;2023-09-30T01:40:15;15.50;;;10.90;;
39782;SDS011;25462;51.164;17.100;2023-09-30T01:45:20;17.00;;;9.70;;
39782;SDS011;25462;51.164;17.100;2023-09-30T01:50:22;12.90;;;10.00;;
39782;SDS011;25462;51.164;17.100;2023-09-30T01:55:25;14.30;;;9.70;;
39782;SDS011;25462;51.164;17.100;2023-09-30T02:00:27;12.50;;;9.40;;
39782;SDS011;25462;51.164;17.100;2023-09-30T02:05:30;11.40;;;9.00;;
39782;SDS011;25462;51.164;17.100;2023-09-30T02:10:33;12.90;;;9.50;;
39782;SDS011;25462;51.164;17.100;2023-09-30T02:15:39;15.50;;;9.30;;
39782;SDS011;25462;51.164;17.100;2023-09-30T02:20:44;10.50;;;8.20;;
39782;SDS011;25462;51.164;17.100;2023-09-30T02:25:46;11.20;;;7.80;;
39782;SDS011;25462;51.164;17.100;2023-09-30T02:30:49;11.40;;;8.30;;
39782;SDS011;25462;51.164;17.100;2023-09-30T02:35:51;13.60;;;7.70;;
39782;SDS011;25462;51.164;17.100;2023-09-30T02:40:54;8.50;;;7.00;;
39782;SDS011;25462;51.164;17.100;2023-09-30T02:46:01;12.20;;;6.50;;
39782;SDS011;25462;51.164;17.100;2023-09-30T02:51:04;9.50;;;7.00;;
39782;SDS011;25462;51.164;17.100;2023-09-30T02:56:06;11.40;;;7.30;;
39782;SDS011;25462;51.164;17.100;2023-09-30T03:01:09;8.30;;;6.50;;
39782;SDS011;25462;51.164;17.100;2023-09-30T03:06:15;13.20;;;6.40;;
39782;SDS011;25462;51.164;17.100;2023-09-30T03:11:20;11.80;;;6.30;;
39782;SDS011;25462;51.164;17.100;2023-09-30T03:16:25;8.10;;;5.10;;
39782;SDS011;25462;51.164;17.100;2023-09-30T03:21:28;10.50;;;6.20;;
39782;SDS011;25462;51.164;17.100;2023-09-30T03:26:31;11.00;;;5.90;;
39782;SDS011;25462;51.164;17.100;2023-09-30T03:31:33;13.30;;;6.10;;
39782;SDS011;25462;51.164;17.100;2023-09-30T03:36:37;6.30;;;5.00;;
39782;SDS011;25462;51.164;17.100;2023-09-30T03:41:40;10.80;;;5.80;;
39782;SDS011;25462;51.164;17.100;2023-09-30T03:46:42;13.10;;;6.20;;
39782;SDS011;25462;51.164;17.100;2023-09-30T03:51:45;12.00;;;5.80;;
39782;SDS011;25462;51.164;17.100;2023-09-30T03:56:48;12.50;;;6.50;;
39782;SDS011;25462;51.164;17.100;2023-09-30T04:01:50;15.40;;;6.50;;
39782;SDS011;25462;51.164;17.100;2023-09-30T04:06:55;10.00;;;5.80;;
39782;SDS011;25462;51.164;17.100;2023-09-30T04:11:58;10.70;;;5.90;;
39782;SDS011;25462;51.164;17.100;2023-09-30T04:17:00;9.80;;;5.70;;
39782;SDS011;25462;51.164;17.100;2023-09-30T04:22:03;10.10;;;5.70;;
39782;SDS011;25462;51.164;17.100;2023-09-30T04:27:06;9.20;;;5.50;;
39782;SDS011;25462;51.164;17.100;2023-09-30T04:32:10;12.50;;;6.40;;
39782;SDS011;25462;51.164;17.100;2023-09-30T04:37:13;11.40;;;5.80;;
39782;SDS011;25462;51.164;17.100;2023-09-30T04:42:16;11.80;;;5.50;;
39782;SDS011;25462;51.164;17.100;2023-09-30T04:47:19;11.00;;;5.70;;
39782;SDS011;25462;51.164;17.100;2023-09-30T04:52:22;8.30;;;5.50;;
39782;SDS011;25462;51.164;17.100;2023-09-30T04:57:26;10.60;;;6.00;;
39782;SDS011;25462;51.164;17.100;2023-09-30T05:02:29;11.00;;;5.80;;
39782;SDS011;25462;51.164;17.100;2023-09-30T05:07:32;10.10;;;6.20;;
39782;SDS011;25462;51.164;17.100;2023-09-30T05:17:37;11.20;;;6.10;;
39782;SDS011;25462;51.164;17.100;2023-09-30T05:22:40;12.50;;;6.30;;
39782;SDS011;25462;51.164;17.100;2023-09-30T05:27:45;15.00;;;6.00;;
39782;SDS011;25462;51.164;17.100;2023-09-30T05:32:50;12.30;;;5.90;;
39782;SDS011;25462;51.164;17.100;2023-09-30T05:37:55;7.80;;;5.10;;
39782;SDS011;25462;51.164;17.100;2023-09-30T05:42:58;9.60;;;5.70;;
39782;SDS011;25462;51.164;17.100;2023-09-30T05:48:02;12.30;;;6.30;;
39782;SDS011;25462;51.164;17.100;2023-09-30T05:53:07;10.40;;;5.70;;
39782;SDS011;25462;51.164;17.100;2023-09-30T05:58:12;9.90;;;5.60;;
39782;SDS011;25462;51.164;17.100;2023-09-30T06:03:16;9.90;;;5.30;;
39782;SDS011;25462;51.164;17.100;2023-09-30T06:08:19;11.30;;;5.20;;
39782;SDS011;25462;51.164;17.100;2023-09-30T06:13:23;13.80;;;4.40;;
39782;SDS011;25462;51.164;17.100;2023-09-30T06:18:25;6.50;;;3.50;;
39782;SDS011;25462;51.164;17.100;2023-09-30T06:23:28;6.60;;;3.10;;
39782;SDS011;25462;51.164;17.100;2023-09-30T06:28:39;4.80;;;2.10;;
39782;SDS011;25462;51.164;17.100;2023-09-30T06:33:43;6.80;;;2.20;;
39782;SDS011;25462;51.164;17.100;2023-09-30T06:38:45;7.00;;;2.20;;
39782;SDS011;25462;51.164;17.100;2023-09-30T06:43:50;8.10;;;2.00;;
39782;SDS011;25462;51.164;17.100;2023-09-30T06:48:54;7.10;;;2.20;;
39782;SDS011;25462;51.164;17.100;2023-09-30T06:53:57;5.80;;;2.10;;
39782;SDS011;25462;51.164;17.100;2023-09-30T06:58:59;5.50;;;2.40;;
39782;SDS011;25462;51.164;17.100;2023-09-30T07:04:03;6.80;;;2.10;;
39782;SDS011;25462;51.164;17.100;2023-09-30T07:09:06;7.50;;;2.10;;
39782;SDS011;25462;51.164;17.100;2023-09-30T07:14:08;9.50;;;2.80;;
39782;SDS011;25462;51.164;17.100;2023-09-30T07:19:11;7.50;;;2.90;;
39782;SDS011;25462;51.164;17.100;2023-09-30T07:24:13;6.00;;;2.80;;
39782;SDS011;25462;51.164;17.100;2023-09-30T07:29:17;5.50;;;3.50;;
39782;SDS011;25462;51.164;17.100;2023-09-30T07:34:20;7.20;;;4.10;;
39782;SDS011;25462;51.164;17.100;2023-09-30T07:39:23;11.50;;;5.30;;
39782;SDS011;25462;51.164;17.100;2023-09-30T07:44:26;10.20;;;5.00;;
39782;SDS011;25462;51.164;17.100;2023-09-30T07:49:29;10.50;;;3.90;;
39782;SDS011;25462;51.164;17.100;2023-09-30T07:54:32;9.50;;;4.00;;
39782;SDS011;25462;51.164;17.100;2023-09-30T07:59:34;9.20;;;2.80;;
39782;SDS011;25462;51.164;17.100;2023-09-30T08:04:37;7.10;;;2.40;;
39782;SDS011;25462;51.164;17.100;2023-09-30T08:09:39;8.40;;;2.40;;
39782;SDS011;25462;51.164;17.100;2023-09-30T08:14:43;8.90;;;2.70;;
39782;SDS011;25462;51.164;17.100;2023-09-30T08:19:47;7.60;;;2.50;;
39782;SDS011;25462;51.164;17.100;2023-09-30T08:24:50;10.10;;;2.80;;
39782;SDS011;25462;51.164;17.100;2023-09-30T08:29:53;7.30;;;2.50;;
39782;SDS011;25462;51.164;17.100;2023-09-30T08:34:56;8.50;;;3.00;;
39782;SDS011;25462;51.164;17.100;2023-09-30T08:39:58;8.10;;;2.70;;
39782;SDS011;25462;51.164;17.100;2023-09-30T08:45:01;7.40;;;2.70;;
39782;SDS011;25462;51.164;17.100;2023-09-30T08:50:06;8.70;;;3.10;;
39782;SDS011;25462;51.164;17.100;2023-09-30T08:55:12;7.70;;;3.20;;
39782;SDS011;25462;51.164;17.100;2023-09-30T09:00:16;6.90;;;2.90;;
39782;SDS011;25462;51.164;17.100;2023-09-30T09:05:19;6.10;;;2.40;;
39782;SDS011;25462;51.164;17.100;2023-09-30T09:10:22;7.90;;;3.00;;
39782;SDS011;25462;51.164;17.100;2023-09-30T09:15:28;8.90;;;2.90;;
39782;SDS011;25462;51.164;17.100;2023-09-30T09:20:32;9.10;;;2.50;;
39782;SDS011;25462;51.164;17.100;2023-09-30T09:25:39;8.90;;;2.90;;
39782;SDS011;25462;51.164;17.100;2023-09-30T09:30:42;7.70;;;2.50;;
39782;SDS011;25462;51.164;17.100;2023-09-30T09:35:47;6.80;;;2.40;;
39782;SDS011;25462;51.164;17.100;2023-09-30T09:40:50;9.70;;;2.80;;
39782;SDS011;25462;51.164;17.100;2023-09-30T09:45:53;7.30;;;2.10;;
39782;SDS011;25462;51.164;17.100;2023-09-30T09:50:57;7.40;;;2.40;;
39782;SDS011;25462;51.164;17.100;2023-09-30T09:56:01;8.60;;;3.10;;
39782;SDS011;25462;51.164;17.100;2023-09-30T10:01:05;8.10;;;2.70;;
39782;SDS011;25462;51.164;17.100;2023-09-30T10:06:09;10.10;;;2.40;;
39782;SDS011;25462;51.164;17.100;2023-09-30T10:11:18;11.40;;;3.20;;
39782;SDS011;25462;51.164;17.100;2023-09-30T10:22:26;5.00;;;2.00;;
39782;SDS011;25462;51.164;17.100;2023-09-30T10:27:40;11.10;;;2.50;;
39782;SDS011;25462;51.164;17.100;2023-09-30T10:43:32;11.80;;;3.90;;
39782;SDS011;25462;51.164;17.100;2023-09-30T10:48:38;6.90;;;2.60;;
39782;SDS011;25462;51.164;17.100;2023-09-30T10:53:45;8.80;;;2.30;;
39782;SDS011;25462;51.164;17.100;2023-09-30T10:58:58;16.40;;;2.70;;
39782;SDS011;25462;51.164;17.100;2023-09-30T11:04:03;8.80;;;2.80;;
39782;SDS011;25462;51.164;17.100;2023-09-30T11:09:08;7.30;;;3.30;;
39782;SDS011;25462;51.164;17.100;2023-09-30T11:19:46;9.30;;;2.60;;
39782;SDS011;25462;51.164;17.100;2023-09-30T11:24:53;10.40;;;3.00;;
39782;SDS011;25462;51.164;17.100;2023-09-30T11:29:55;10.00;;;2.90;;
39782;SDS011;25462;51.164;17.100;2023-09-30T11:34:58;10.40;;;3.20;;
39782;SDS011;25462;51.164;17.100;2023-09-30T11:40:10;12.20;;;3.30;;
39782;SDS011;25462;51.164;17.100;2023-09-30T11:45:21;11.40;;;3.50;;
39782;SDS011;25462;51.164;17.100;2023-09-30T11:50:25;10.70;;;3.40;;
39782;SDS011;25462;51.164;17.100;2023-09-30T11:55:27;8.90;;;3.20;;
39782;SDS011;25462;51.164;17.100;2023-09-30T12:00:34;11.70;;;3.60;;
39782;SDS011;25462;51.164;17.100;2023-09-30T12:05:37;10.50;;;2.80;;
39782;SDS011;25462;51.164;17.100;2023-09-30T12:10:40;11.40;;;3.10;;
39782;SDS011;25462;51.164;17.100;2023-09-30T12:15:43;10.50;;;2.90;;
39782;SDS011;25462;51.164;17.100;2023-09-30T12:20:48;11.40;;;3.50;;
39782;SDS011;25462;51.164;17.100;2023-09-30T12:26:01;9.70;;;3.10;;
39782;SDS011;25462;51.164;17.100;2023-09-30T12:31:19;11.50;;;3.00;;
39782;SDS011;25462;51.164;17.100;2023-09-30T12:36:25;11.50;;;3.50;;
39782;SDS011;25462;51.164;17.100;2023-09-30T12:41:28;9.00;;;2.60;;
39782;SDS011;25462;51.164;17.100;2023-09-30T12:46:35;9.70;;;3.50;;
39782;SDS011;25462;51.164;17.100;2023-09-30T12:51:40;10.00;;;3.10;;
39782;SDS011;25462;51.164;17.100;2023-09-30T12:56:45;11.40;;;2.60;;
39782;SDS011;25462;51.164;17.100;2023-09-30T13:01:49;8.90;;;3.30;;
39782;SDS011;25462;51.164;17.100;2023-09-30T13:06:52;6.20;;;2.30;;
39782;SDS011;25462;51.164;17.100;2023-09-30T13:11:55;9.10;;;2.30;;
39782;SDS011;25462;51.164;17.100;2023-09-30T13:17:02;10.50;;;2.70;;
39782;SDS011;25462;51.164;17.100;2023-09-30T13:22:09;7.20;;;2.70;;
39782;SDS011;25462;51.164;17.100;2023-09-30T13:27:21;12.80;;;2.80;;
39782;SDS011;25462;51.164;17.100;2023-09-30T13:32:24;10.70;;;2.60;;
39782;SDS011;25462;51.164;17.100;2023-09-30T13:37:28;10.30;;;2.90;;
39782;SDS011;25462;51.164;17.100;2023-09-30T13:42:35;11.80;;;3.00;;
39782;SDS011;25462;51.164;17.100;2023-09-30T13:47:37;10.80;;;2.50;;
39782;SDS011;25462;51.164;17.100;2023-09-30T13:52:40;12.20;;;2.80;;
39782;SDS011;25462;51.164;17.100;2023-09-30T13:57:43;9.80;;;2.50;;
39782;SDS011;25462;51.164;17.100;2023-09-30T14:02:45;9.80;;;3.00;;
39782;SDS011;25462;51.164;17.100;2023-09-30T14:07:48;16.70;;;2.70;;
39782;SDS011;25462;51.164;17.100;2023-09-30T14:12:50;8.80;;;2.40;;
39782;SDS011;25462;51.164;17.100;2023-09-30T14:17:55;6.70;;;2.40;;
39782;SDS011;25462;51.164;17.100;2023-09-30T14:22:58;8.20;;;2.30;;
39782;SDS011;25462;51.164;17.100;2023-09-30T14:28:01;9.30;;;2.70;;
39782;SDS011;25462;51.164;17.100;2023-09-30T14:33:03;8.10;;;2.40;;
39782;SDS011;25462;51.164;17.100;2023-09-30T14:38:06;8.30;;;2.40;;
39782;SDS011;25462;51.164;17.100;2023-09-30T14:43:09;12.00;;;2.70;;
39782;SDS011;25462;51.164;17.100;2023-09-30T14:48:12;9.10;;;2.30;;
39782;SDS011;25462;51.164;17.100;2023-09-30T14:53:16;13.20;;;2.90;;
39782;SDS011;25462;51.164;17.100;2023-09-30T14:58:19;11.20;;;2.60;;
39782;SDS011;25462;51.164;17.100;2023-09-30T15:03:22;8.10;;;2.40;;
39782;SDS011;25462;51.164;17.100;2023-09-30T15:13:28;6.20;;;2.50;;
39782;SDS011;25462;51.164;17.100;2023-09-30T15:18:31;10.10;;;3.40;;
39782;SDS011;25462;51.164;17.100;2023-09-30T15:23:34;12.90;;;2.60;;
39782;SDS011;25462;51.164;17.100;2023-09-30T15:28:37;7.70;;;2.70;;
39782;SDS011;25462;51.164;17.100;2023-09-30T15:33:40;9.70;;;3.10;;
39782;SDS011;25462;51.164;17.100;2023-09-30T15:38:43;5.60;;;2.10;;
39782;SDS011;25462;51.164;17.100;2023-09-30T15:43:45;7.50;;;2.50;;
39782;SDS011;25462;51.164;17.100;2023-09-30T15:48:48;10.00;;;2.30;;
39782;SDS011;25462;51.164;17.100;2023-09-30T15:53:51;10.40;;;2.40;;
39782;SDS011;25462;51.164;17.100;2023-09-30T15:58:53;7.90;;;2.40;;
39782;SDS011;25462;51.164;17.100;2023-09-30T16:03:56;6.80;;;2.30;;
39782;SDS011;25462;51.164;17.100;2023-09-30T16:09:00;9.20;;;2.50;;
39782;SDS011;25462;51.164;17.100;2023-09-30T16:14:02;11.20;;;2.90;;
39782;SDS011;25462;51.164;17.100;2023-09-30T16:19:07;12.40;;;2.40;;
39782;SDS011;25462;51.164;17.100;2023-09-30T16:24:10;8.20;;;2.30;;
39782;SDS011;25462;51.164;17.100;2023-09-30T16:29:13;8.70;;;3.00;;
39782;SDS011;25462;51.164;17.100;2023-09-30T16:34:22;9.20;;;3.00;;
39782;SDS011;25462;51.164;17.100;2023-09-30T16:39:24;9.20;;;2.50;;
39782;SDS011;25462;51.164;17.100;2023-09-30T16:44:27;10.20;;;2.70;;
39782;SDS011;25462;51.164;17.100;2023-09-30T16:49:31;8.00;;;2.30;;
39782;SDS011;25462;51.164;17.100;2023-09-30T16:54:34;7.20;;;2.40;;
39782;SDS011;25462;51.164;17.100;2023-09-30T16:59:37;12.80;;;2.80;;
39782;SDS011;25462;51.164;17.100;2023-09-30T17:09:45;8.70;;;2.80;;
39782;SDS011;25462;51.164;17.100;2023-09-30T17:14:49;10.60;;;3.40;;
39782;SDS011;25462;51.164;17.100;2023-09-30T17:19:52;9.50;;;3.00;;
39782;SDS011;25462;51.164;17.100;2023-09-30T17:24:54;11.80;;;3.50;;
39782;SDS011;25462;51.164;17.100;2023-09-30T17:29:59;13.60;;;3.90;;
39782;SDS011;25462;51.164;17.100;2023-09-30T17:35:03;13.20;;;4.00;;
39782;SDS011;25462;51.164;17.100;2023-09-30T17:40:06;14.60;;;4.10;;
39782;SDS011;25462;51.164;17.100;2023-09-30T17:45:11;17.70;;;4.20;;
39782;SDS011;25462;51.164;17.100;2023-09-30T17:50:15;13.50;;;3.60;;
39782;SDS011;25462;51.164;17.100;2023-09-30T17:55:23;13.80;;;4.70;;
39782;SDS011;25462;51.164;17.100;2023-09-30T18:00:28;13.00;;;4.40;;
39782;SDS011;25462;51.164;17.100;2023-09-30T18:05:31;15.80;;;4.20;;
39782;SDS011;25462;51.164;17.100;2023-09-30T18:10:35;10.70;;;3.70;;
39782;SDS011;25462;51.164;17.100;2023-09-30T18:15:39;10.70;;;2.70;;
39782;SDS011;25462;51.164;17.100;2023-09-30T18:20:43;9.60;;;3.30;;
39782;SDS011;25462;51.164;17.100;2023-09-30T18:25:47;10.00;;;4.10;;
39782;SDS011;25462;51.164;17.100;2023-09-30T18:30:50;11.10;;;3.40;;
39782;SDS011;25462;51.164;17.100;2023-09-30T18:35:53;10.20;;;3.40;;
39782;SDS011;25462;51.164;17.100;2023-09-30T18:40:57;9.40;;;3.60;;
39782;SDS011;25462;51.164;17.100;2023-09-30T18:46:07;9.00;;;2.90;;
39782;SDS011;25462;51.164;17.100;2023-09-30T18:51:18;12.40;;;3.50;;
39782;SDS011;25462;51.164;17.100;2023-09-30T18:56:23;11.00;;;3.80;;
39782;SDS011;25462;51.164;17.100;2023-09-30T19:01:26;14.20;;;3.80;;
39782;SDS011;25462;51.164;17.100;2023-09-30T19:06:31;16.40;;;4.80;;
39782;SDS011;25462;51.164;17.100;2023-09-30T19:11:35;19.10;;;5.20;;
39782;SDS011;25462;51.164;17.100;2023-09-30T19:16:41;12.30;;;3.80;;
39782;SDS011;25462;51.164;17.100;2023-09-30T19:21:45;10.60;;;4.60;;
39782;SDS011;25462;51.164;17.100;2023-09-30T19:26:50;13.80;;;4.20;;
39782;SDS011;25462;51.164;17.100;2023-09-30T19:31:54;21.50;;;6.20;;
39782;SDS011;25462;51.164;17.100;2023-09-30T19:36:58;12.20;;;4.20;;
39782;SDS011;25462;51.164;17.100;2023-09-30T19:42:01;13.70;;;4.40;;
39782;SDS011;25462;51.164;17.100;2023-09-30T19:47:05;17.10;;;5.00;;
39782;SDS011;25462;51.164;17.100;2023-09-30T19:52:17;15.10;;;5.00;;
39782;SDS011;25462;51.164;17.100;2023-09-30T19:57:21;12.90;;;4.60;;
39782;SDS011;25462;51.164;17.100;2023-09-30T20:02:24;18.70;;;5.60;;
39782;SDS011;25462;51.164;17.100;2023-09-30T20:07:27;13.40;;;5.50;;
39782;SDS011;25462;51.164;17.100;2023-09-30T20:12:30;12.60;;;5.50;;
39782;SDS011;25462;51.164;17.100;2023-09-30T20:17:37;16.30;;;6.40;;
39782;SDS011;25462;51.164;17.100;2023-09-30T20:22:45;17.50;;;6.60;;
39782;SDS011;25462;51.164;17.100;2023-09-30T20:27:48;18.90;;;4.90;;
39782;SDS011;25462;51.164;17.100;2023-09-30T20:32:51;16.20;;;4.70;;
39782;SDS011;25462;51.164;17.100;2023-09-30T20:37:56;16.20;;;4.80;;
39782;SDS011;25462;51.164;17.100;2023-09-30T20:42:59;20.00;;;6.00;;
39782;SDS011;25462;51.164;17.100;2023-09-30T20:48:03;14.90;;;5.20;;
39782;SDS011;25462;51.164;17.100;2023-09-30T20:53:15;13.50;;;6.10;;
39782;SDS011;25462;51.164;17.100;2023-09-30T20:58:17;14.60;;;5.30;;
39782;SDS011;25462;51.164;17.100;2023-09-30T21:03:21;15.60;;;5.80;;
39782;SDS011;25462;51.164;17.100;2023-09-30T21:08:24;18.10;;;5.90;;
39782;SDS011;25462;51.164;17.100;2023-09-30T21:13:26;14.80;;;6.00;;
39782;SDS011;25462;51.164;17.100;2023-09-30T21:18:29;17.50;;;5.70;;
39782;SDS011;25462;51.164;17.100;2023-09-30T21:23:32;16.70;;;6.20;;
39782;SDS011;25462;51.164;17.100;2023-09-30T21:28:36;18.50;;;6.10;;
39782;SDS011;25462;51.164;17.100;2023-09-30T21:33:42;18.10;;;5.70;;
39782;SDS011;25462;51.164;17.100;2023-09-30T21:38:48;10.50;;;4.90;;
39782;SDS011;25462;51.164;17.100;2023-09-30T21:43:52;19.30;;;5.90;;
39782;SDS011;25462;51.164;17.100;2023-09-30T21:48:55;15.40;;;5.10;;
39782;SDS011;25462;51.164;17.100;2023-09-30T21:53:58;14.60;;;5.20;;
39782;SDS011;25462;51.164;17.100;2023-09-30T21:59:02;13.80;;;6.10;;
39782;SDS011;25462;51.164;17.100;2023-09-30T22:04:05;13.50;;;5.60;;
39782;SDS011;25462;51.164;17.100;2023-09-30T22:09:08;16.90;;;7.00;;
39782;SDS011;25462;51.164;17.100;2023-09-30T22:14:11;19.50;;;6.00;;
39782;SDS011;25462;51.164;17.100;2023-09-30T22:19:15;17.00;;;7.00;;
39782;SDS011;25462;51.164;17.100;2023-09-30T22:24:19;17.90;;;6.40;;
39782;SDS011;25462;51.164;17.100;2023-09-30T22:29:23;21.10;;;7.50;;
39782;SDS011;25462;51.164;17.100;2023-09-30T22:34:25;21.90;;;8.10;;
39782;SDS011;25462;51.164;17.100;2023-09-30T22:39:29;18.30;;;7.00;;
39782;SDS011;25462;51.164;17.100;2023-09-30T22:44:31;22.50;;;8.10;;
39782;SDS011;25462;51.164;17.100;2023-09-30T22:49:34;26.00;;;9.00;;
39782;SDS011;25462;51.164;17.100;2023-09-30T22:54:36;18.30;;;8.20;;
39782;SDS011;25462;51.164;17.100;2023-09-30T22:59:39;24.70;;;8.80;;
39782;SDS011;25462;51.164;17.100;2023-09-30T23:04:42;21.60;;;9.40;;
39782;SDS011;25462;51.164;17.100;2023-09-30T23:09:44;18.60;;;8.50;;
39782;SDS011;25462;51.164;17.100;2023-09-30T23:14:47;22.20;;;9.10;;
39782;SDS011;25462;51.164;17.100;2023-09-30T23:19:51;18.40;;;8.30;;
39782;SDS011;25462;51.164;17.100;2023-09-30T23:24:54;27.90;;;9.70;;
39782;SDS011;25462;51.164;17.100;2023-09-30T23:29:59;22.10;;;10.10;;
39782;SDS011;25462;51.164;17.100;2023-09-30T23:35:17;15.80;;;8.30;;
39782;SDS011;25462;51.164;17.100;2023-09-30T23:40:23;23.40;;;8.70;;
39782;SDS011;25462;51.164;17.100;2023-09-30T23:45:25;26.80;;;10.20;;
39782;SDS011;25462;51.164;17.100;2023-09-30T23:50:28;20.90;;;7.90;;
39782;SDS011;25462;51.164;17.100;2023-09-30T23:55:31;22.30;;;8.60;;
